sensor_id;sensor_type;location;lat;lon;timestamp;P1;durP1;ratioP1;P2;durP2;ratioP2
46090;SDS011;31826;53.572;10.170;2023-06-22T00:00:52;5.27;;;2.67;;
46090;SDS011;31826;53.572;10.170;2023-06-22T00:03:19;6.75;;;2.40;;
46090;SDS011;31826;53.572;10.170;2023-06-22T00:05:46;5.18;;;2.45;;
46090;SDS011;31826;53.572;10.170;2023-06-22T00:08:12;6.78;;;2.45;;
46090;SDS011;31826;53.572;10.170;2023-06-22T00:10:38;4.65;;;2.80;;
46090;SDS011;31826;53.572;10.170;2023-06-22T00:13:05;5.15;;;2.70;;
46090;SDS011;31826;53.572;10.170;2023-06-22T00:15:32;4.35;;;2.40;;
46090;SDS011;31826;53.572;10.170;2023-06-22T00:17:58;6.80;;;2.70;;
46090;SDS011;31826;53.572;10.170;2023-06-22T00:20:24;4.40;;;2.20;;
46090;SDS011;31826;53.572;10.170;2023-06-22T00:22:54;4.35;;;2.30;;
46090;SDS011;31826;53.572;10.170;2023-06-22T00:25:20;4.18;;;2.22;;
46090;SDS011;31826;53.572;10.170;2023-06-22T00:27:46;4.30;;;2.38;;
46090;SDS011;31826;53.572;10.170;2023-06-22T00:30:12;5.90;;;2.60;;
46090;SDS011;31826;53.572;10.170;2023-06-22T00:32:38;5.68;;;2.65;;
46090;SDS011;31826;53.572;10.170;2023-06-22T00:35:04;5.63;;;2.30;;
46090;SDS011;31826;53.572;10.170;2023-06-22T00:37:30;6.22;;;2.60;;
46090;SDS011;31826;53.572;10.170;2023-06-22T00:39:56;5.50;;;2.47;;
46090;SDS011;31826;53.572;10.170;2023-06-22T00:42:22;4.55;;;2.53;;
46090;SDS011;31826;53.572;10.170;2023-06-22T00:44:48;4.22;;;2.38;;
46090;SDS011;31826;53.572;10.170;2023-06-22T00:47:14;5.13;;;2.50;;
46090;SDS011;31826;53.572;10.170;2023-06-22T00:49:42;5.45;;;2.60;;
46090;SDS011;31826;53.572;10.170;2023-06-22T00:52:08;5.50;;;2.63;;
46090;SDS011;31826;53.572;10.170;2023-06-22T00:54:40;7.03;;;2.75;;
46090;SDS011;31826;53.572;10.170;2023-06-22T00:57:13;5.85;;;2.65;;
46090;SDS011;31826;53.572;10.170;2023-06-22T00:59:42;6.43;;;2.67;;
46090;SDS011;31826;53.572;10.170;2023-06-22T01:02:08;4.95;;;2.60;;
46090;SDS011;31826;53.572;10.170;2023-06-22T01:04:35;5.20;;;2.58;;
46090;SDS011;31826;53.572;10.170;2023-06-22T01:09:53;4.95;;;2.40;;
46090;SDS011;31826;53.572;10.170;2023-06-22T01:12:42;5.53;;;2.58;;
46090;SDS011;31826;53.572;10.170;2023-06-22T01:17:44;5.13;;;2.30;;
46090;SDS011;31826;53.572;10.170;2023-06-22T01:20:13;4.15;;;2.33;;
46090;SDS011;31826;53.572;10.170;2023-06-22T01:31:15;5.07;;;2.50;;
46090;SDS011;31826;53.572;10.170;2023-06-22T01:33:43;5.32;;;2.63;;
46090;SDS011;31826;53.572;10.170;2023-06-22T01:36:10;5.18;;;2.50;;
46090;SDS011;31826;53.572;10.170;2023-06-22T01:38:37;6.13;;;2.78;;
46090;SDS011;31826;53.572;10.170;2023-06-22T01:41:04;7.78;;;2.80;;
46090;SDS011;31826;53.572;10.170;2023-06-22T01:43:30;6.00;;;2.60;;
46090;SDS011;31826;53.572;10.170;2023-06-22T01:45:58;5.35;;;2.80;;
46090;SDS011;31826;53.572;10.170;2023-06-22T01:48:26;5.90;;;2.72;;
46090;SDS011;31826;53.572;10.170;2023-06-22T01:50:52;4.68;;;2.60;;
46090;SDS011;31826;53.572;10.170;2023-06-22T01:53:20;6.10;;;2.78;;
46090;SDS011;31826;53.572;10.170;2023-06-22T01:55:47;6.13;;;2.63;;
46090;SDS011;31826;53.572;10.170;2023-06-22T01:58:13;6.10;;;2.80;;
46090;SDS011;31826;53.572;10.170;2023-06-22T02:00:38;5.75;;;2.90;;
46090;SDS011;31826;53.572;10.170;2023-06-22T02:03:10;8.15;;;3.17;;
46090;SDS011;31826;53.572;10.170;2023-06-22T02:05:46;5.73;;;3.03;;
46090;SDS011;31826;53.572;10.170;2023-06-22T02:08:17;7.28;;;3.35;;
46090;SDS011;31826;53.572;10.170;2023-06-22T02:10:46;5.33;;;2.97;;
46090;SDS011;31826;53.572;10.170;2023-06-22T02:13:13;5.25;;;2.90;;
46090;SDS011;31826;53.572;10.170;2023-06-22T02:15:39;5.90;;;2.60;;
46090;SDS011;31826;53.572;10.170;2023-06-22T02:18:05;5.40;;;2.78;;
46090;SDS011;31826;53.572;10.170;2023-06-22T02:20:32;5.03;;;2.72;;
46090;SDS011;31826;53.572;10.170;2023-06-22T02:22:57;6.03;;;2.87;;
46090;SDS011;31826;53.572;10.170;2023-06-22T02:25:23;6.33;;;3.17;;
46090;SDS011;31826;53.572;10.170;2023-06-22T02:27:49;7.45;;;2.80;;
46090;SDS011;31826;53.572;10.170;2023-06-22T02:30:15;6.72;;;3.22;;
46090;SDS011;31826;53.572;10.170;2023-06-22T02:32:41;7.72;;;3.00;;
46090;SDS011;31826;53.572;10.170;2023-06-22T02:35:08;6.70;;;3.20;;
46090;SDS011;31826;53.572;10.170;2023-06-22T02:37:35;7.38;;;3.20;;
46090;SDS011;31826;53.572;10.170;2023-06-22T02:40:07;6.03;;;2.95;;
46090;SDS011;31826;53.572;10.170;2023-06-22T02:42:34;6.65;;;2.72;;
46090;SDS011;31826;53.572;10.170;2023-06-22T02:45:00;6.97;;;2.80;;
46090;SDS011;31826;53.572;10.170;2023-06-22T02:47:26;4.95;;;3.00;;
46090;SDS011;31826;53.572;10.170;2023-06-22T02:49:52;5.80;;;2.90;;
46090;SDS011;31826;53.572;10.170;2023-06-22T02:52:17;6.05;;;3.42;;
46090;SDS011;31826;53.572;10.170;2023-06-22T02:54:43;7.65;;;3.47;;
46090;SDS011;31826;53.572;10.170;2023-06-22T02:57:11;6.47;;;3.23;;
46090;SDS011;31826;53.572;10.170;2023-06-22T02:59:39;6.45;;;3.40;;
46090;SDS011;31826;53.572;10.170;2023-06-22T03:02:06;7.13;;;3.47;;
46090;SDS011;31826;53.572;10.170;2023-06-22T03:04:34;8.18;;;3.05;;
46090;SDS011;31826;53.572;10.170;2023-06-22T03:07:00;6.75;;;3.28;;
46090;SDS011;31826;53.572;10.170;2023-06-22T03:09:26;8.57;;;3.30;;
46090;SDS011;31826;53.572;10.170;2023-06-22T03:11:55;7.22;;;3.22;;
46090;SDS011;31826;53.572;10.170;2023-06-22T03:14:21;7.85;;;3.35;;
46090;SDS011;31826;53.572;10.170;2023-06-22T03:16:47;7.03;;;3.30;;
46090;SDS011;31826;53.572;10.170;2023-06-22T03:19:13;7.53;;;3.50;;
46090;SDS011;31826;53.572;10.170;2023-06-22T03:21:39;6.90;;;3.30;;
46090;SDS011;31826;53.572;10.170;2023-06-22T03:24:05;6.13;;;3.20;;
46090;SDS011;31826;53.572;10.170;2023-06-22T03:26:32;6.87;;;3.20;;
46090;SDS011;31826;53.572;10.170;2023-06-22T03:28:58;6.65;;;3.13;;
46090;SDS011;31826;53.572;10.170;2023-06-22T03:31:24;7.37;;;3.17;;
46090;SDS011;31826;53.572;10.170;2023-06-22T03:33:49;6.73;;;3.33;;
46090;SDS011;31826;53.572;10.170;2023-06-22T03:36:16;9.13;;;3.25;;
46090;SDS011;31826;53.572;10.170;2023-06-22T03:38:45;8.57;;;3.60;;
46090;SDS011;31826;53.572;10.170;2023-06-22T03:41:11;6.15;;;3.13;;
46090;SDS011;31826;53.572;10.170;2023-06-22T03:43:37;5.95;;;3.05;;
46090;SDS011;31826;53.572;10.170;2023-06-22T03:46:04;6.38;;;3.30;;
46090;SDS011;31826;53.572;10.170;2023-06-22T03:48:30;6.30;;;3.30;;
46090;SDS011;31826;53.572;10.170;2023-06-22T03:50:56;6.87;;;3.47;;
46090;SDS011;31826;53.572;10.170;2023-06-22T03:53:23;5.88;;;3.20;;
46090;SDS011;31826;53.572;10.170;2023-06-22T03:55:50;6.87;;;3.37;;
46090;SDS011;31826;53.572;10.170;2023-06-22T03:58:16;8.37;;;3.57;;
46090;SDS011;31826;53.572;10.170;2023-06-22T04:00:44;6.80;;;3.50;;
46090;SDS011;31826;53.572;10.170;2023-06-22T04:03:14;7.40;;;3.20;;
46090;SDS011;31826;53.572;10.170;2023-06-22T04:05:40;6.90;;;3.33;;
46090;SDS011;31826;53.572;10.170;2023-06-22T04:08:07;7.47;;;3.60;;
46090;SDS011;31826;53.572;10.170;2023-06-22T04:10:33;12.77;;;4.50;;
46090;SDS011;31826;53.572;10.170;2023-06-22T04:12:59;8.47;;;3.80;;
46090;SDS011;31826;53.572;10.170;2023-06-22T04:15:25;7.47;;;3.80;;
46090;SDS011;31826;53.572;10.170;2023-06-22T04:17:51;7.07;;;3.35;;
46090;SDS011;31826;53.572;10.170;2023-06-22T04:20:17;9.53;;;3.70;;
46090;SDS011;31826;53.572;10.170;2023-06-22T04:22:42;6.87;;;3.77;;
46090;SDS011;31826;53.572;10.170;2023-06-22T04:25:08;7.43;;;3.50;;
46090;SDS011;31826;53.572;10.170;2023-06-22T04:27:34;8.27;;;4.05;;
46090;SDS011;31826;53.572;10.170;2023-06-22T04:30:07;7.72;;;3.40;;
46090;SDS011;31826;53.572;10.170;2023-06-22T04:32:33;8.30;;;3.40;;
46090;SDS011;31826;53.572;10.170;2023-06-22T04:35:03;8.25;;;3.55;;
46090;SDS011;31826;53.572;10.170;2023-06-22T04:37:32;7.93;;;3.60;;
46090;SDS011;31826;53.572;10.170;2023-06-22T04:39:58;8.82;;;3.50;;
46090;SDS011;31826;53.572;10.170;2023-06-22T04:42:27;9.20;;;3.30;;
46090;SDS011;31826;53.572;10.170;2023-06-22T04:44:53;8.73;;;3.50;;
46090;SDS011;31826;53.572;10.170;2023-06-22T04:47:19;9.45;;;3.50;;
46090;SDS011;31826;53.572;10.170;2023-06-22T04:49:44;8.75;;;3.65;;
46090;SDS011;31826;53.572;10.170;2023-06-22T04:52:11;6.78;;;3.40;;
46090;SDS011;31826;53.572;10.170;2023-06-22T04:54:39;9.77;;;3.60;;
46090;SDS011;31826;53.572;10.170;2023-06-22T04:57:13;7.18;;;3.30;;
46090;SDS011;31826;53.572;10.170;2023-06-22T04:59:39;7.80;;;3.25;;
46090;SDS011;31826;53.572;10.170;2023-06-22T05:02:07;8.15;;;3.50;;
46090;SDS011;31826;53.572;10.170;2023-06-22T05:04:33;7.78;;;3.88;;
46090;SDS011;31826;53.572;10.170;2023-06-22T05:07:00;18.35;;;8.70;;
46090;SDS011;31826;53.572;10.170;2023-06-22T05:09:27;7.47;;;3.65;;
46090;SDS011;31826;53.572;10.170;2023-06-22T05:11:55;9.40;;;3.72;;
46090;SDS011;31826;53.572;10.170;2023-06-22T05:14:25;7.75;;;4.18;;
46090;SDS011;31826;53.572;10.170;2023-06-22T05:16:51;9.20;;;3.53;;
46090;SDS011;31826;53.572;10.170;2023-06-22T05:19:23;7.90;;;3.47;;
46090;SDS011;31826;53.572;10.170;2023-06-22T05:21:49;8.32;;;3.70;;
46090;SDS011;31826;53.572;10.170;2023-06-22T05:24:15;8.73;;;3.90;;
46090;SDS011;31826;53.572;10.170;2023-06-22T05:26:41;8.63;;;3.60;;
46090;SDS011;31826;53.572;10.170;2023-06-22T05:29:06;8.00;;;3.70;;
46090;SDS011;31826;53.572;10.170;2023-06-22T05:31:33;11.32;;;5.15;;
46090;SDS011;31826;53.572;10.170;2023-06-22T05:33:58;9.65;;;3.92;;
46090;SDS011;31826;53.572;10.170;2023-06-22T05:36:24;8.73;;;3.25;;
46090;SDS011;31826;53.572;10.170;2023-06-22T05:38:55;6.72;;;2.97;;
46090;SDS011;31826;53.572;10.170;2023-06-22T05:41:21;6.43;;;2.78;;
46090;SDS011;31826;53.572;10.170;2023-06-22T05:43:47;7.63;;;3.30;;
46090;SDS011;31826;53.572;10.170;2023-06-22T05:46:13;7.43;;;2.90;;
46090;SDS011;31826;53.572;10.170;2023-06-22T05:48:39;8.00;;;3.00;;
46090;SDS011;31826;53.572;10.170;2023-06-22T05:51:04;4.55;;;2.50;;
46090;SDS011;31826;53.572;10.170;2023-06-22T05:53:30;6.90;;;2.70;;
46090;SDS011;31826;53.572;10.170;2023-06-22T05:55:56;7.65;;;2.80;;
46090;SDS011;31826;53.572;10.170;2023-06-22T05:58:22;4.88;;;2.42;;
46090;SDS011;31826;53.572;10.170;2023-06-22T06:00:47;5.65;;;2.50;;
46090;SDS011;31826;53.572;10.170;2023-06-22T06:03:13;4.60;;;2.13;;
46090;SDS011;31826;53.572;10.170;2023-06-22T06:05:42;4.95;;;2.50;;
46090;SDS011;31826;53.572;10.170;2023-06-22T06:08:09;5.70;;;2.70;;
46090;SDS011;31826;53.572;10.170;2023-06-22T06:10:36;5.72;;;2.40;;
46090;SDS011;31826;53.572;10.170;2023-06-22T06:13:02;4.72;;;2.78;;
46090;SDS011;31826;53.572;10.170;2023-06-22T06:15:29;6.22;;;2.60;;
46090;SDS011;31826;53.572;10.170;2023-06-22T06:17:55;4.97;;;2.53;;
46090;SDS011;31826;53.572;10.170;2023-06-22T06:20:22;6.15;;;2.45;;
46090;SDS011;31826;53.572;10.170;2023-06-22T06:22:49;4.63;;;2.22;;
46090;SDS011;31826;53.572;10.170;2023-06-22T06:25:15;6.05;;;2.92;;
46090;SDS011;31826;53.572;10.170;2023-06-22T06:27:44;5.55;;;2.47;;
46090;SDS011;31826;53.572;10.170;2023-06-22T06:30:11;6.60;;;2.53;;
46090;SDS011;31826;53.572;10.170;2023-06-22T06:32:39;3.97;;;2.13;;
46090;SDS011;31826;53.572;10.170;2023-06-22T06:35:08;4.72;;;2.30;;
46090;SDS011;31826;53.572;10.170;2023-06-22T06:37:36;5.03;;;2.35;;
46090;SDS011;31826;53.572;10.170;2023-06-22T06:40:08;6.75;;;2.50;;
46090;SDS011;31826;53.572;10.170;2023-06-22T06:42:42;5.80;;;2.40;;
46090;SDS011;31826;53.572;10.170;2023-06-22T06:45:16;7.20;;;2.47;;
46090;SDS011;31826;53.572;10.170;2023-06-22T06:47:43;4.85;;;2.50;;
46090;SDS011;31826;53.572;10.170;2023-06-22T06:50:09;4.75;;;2.00;;
46090;SDS011;31826;53.572;10.170;2023-06-22T06:52:35;4.95;;;2.38;;
46090;SDS011;31826;53.572;10.170;2023-06-22T06:55:01;5.97;;;2.45;;
46090;SDS011;31826;53.572;10.170;2023-06-22T06:57:29;6.80;;;2.85;;
46090;SDS011;31826;53.572;10.170;2023-06-22T06:59:55;4.55;;;2.20;;
46090;SDS011;31826;53.572;10.170;2023-06-22T07:02:22;5.23;;;2.30;;
46090;SDS011;31826;53.572;10.170;2023-06-22T07:04:48;5.68;;;2.63;;
46090;SDS011;31826;53.572;10.170;2023-06-22T07:07:14;5.97;;;2.70;;
46090;SDS011;31826;53.572;10.170;2023-06-22T07:09:40;7.00;;;2.65;;
46090;SDS011;31826;53.572;10.170;2023-06-22T07:12:06;6.40;;;3.20;;
46090;SDS011;31826;53.572;10.170;2023-06-22T07:14:32;5.57;;;2.45;;
46090;SDS011;31826;53.572;10.170;2023-06-22T07:16:58;5.95;;;3.00;;
46090;SDS011;31826;53.572;10.170;2023-06-22T07:19:24;5.70;;;2.70;;
46090;SDS011;31826;53.572;10.170;2023-06-22T07:21:51;5.32;;;2.40;;
46090;SDS011;31826;53.572;10.170;2023-06-22T07:24:17;6.30;;;2.70;;
46090;SDS011;31826;53.572;10.170;2023-06-22T07:26:45;4.20;;;2.17;;
46090;SDS011;31826;53.572;10.170;2023-06-22T07:29:11;6.57;;;2.55;;
46090;SDS011;31826;53.572;10.170;2023-06-22T07:31:37;5.57;;;2.30;;
46090;SDS011;31826;53.572;10.170;2023-06-22T07:34:05;4.15;;;2.15;;
46090;SDS011;31826;53.572;10.170;2023-06-22T07:36:30;6.27;;;2.57;;
46090;SDS011;31826;53.572;10.170;2023-06-22T07:38:56;6.00;;;2.30;;
46090;SDS011;31826;53.572;10.170;2023-06-22T07:41:22;4.10;;;2.25;;
46090;SDS011;31826;53.572;10.170;2023-06-22T07:43:47;4.97;;;2.15;;
46090;SDS011;31826;53.572;10.170;2023-06-22T07:46:13;4.67;;;2.20;;
46090;SDS011;31826;53.572;10.170;2023-06-22T07:48:40;4.53;;;2.10;;
46090;SDS011;31826;53.572;10.170;2023-06-22T07:51:07;4.10;;;1.95;;
46090;SDS011;31826;53.572;10.170;2023-06-22T07:53:32;5.68;;;2.55;;
46090;SDS011;31826;53.572;10.170;2023-06-22T07:55:58;6.03;;;2.50;;
46090;SDS011;31826;53.572;10.170;2023-06-22T07:58:24;6.18;;;2.28;;
46090;SDS011;31826;53.572;10.170;2023-06-22T08:00:49;3.70;;;2.08;;
46090;SDS011;31826;53.572;10.170;2023-06-22T08:03:15;5.50;;;2.30;;
46090;SDS011;31826;53.572;10.170;2023-06-22T08:05:41;4.93;;;2.40;;
46090;SDS011;31826;53.572;10.170;2023-06-22T08:08:07;4.22;;;2.30;;
46090;SDS011;31826;53.572;10.170;2023-06-22T08:10:32;5.33;;;2.40;;
46090;SDS011;31826;53.572;10.170;2023-06-22T08:12:59;5.57;;;2.25;;
46090;SDS011;31826;53.572;10.170;2023-06-22T08:15:26;3.88;;;2.00;;
46090;SDS011;31826;53.572;10.170;2023-06-22T08:17:51;4.60;;;2.20;;
46090;SDS011;31826;53.572;10.170;2023-06-22T08:20:17;4.53;;;2.10;;
46090;SDS011;31826;53.572;10.170;2023-06-22T08:22:43;5.97;;;2.33;;
46090;SDS011;31826;53.572;10.170;2023-06-22T08:25:09;3.58;;;1.92;;
46090;SDS011;31826;53.572;10.170;2023-06-22T08:27:36;4.65;;;2.10;;
46090;SDS011;31826;53.572;10.170;2023-06-22T08:30:02;4.55;;;1.83;;
46090;SDS011;31826;53.572;10.170;2023-06-22T08:32:28;3.95;;;2.08;;
46090;SDS011;31826;53.572;10.170;2023-06-22T08:34:55;3.72;;;1.92;;
46090;SDS011;31826;53.572;10.170;2023-06-22T08:37:21;3.90;;;2.03;;
46090;SDS011;31826;53.572;10.170;2023-06-22T08:39:56;4.68;;;1.75;;
46090;SDS011;31826;53.572;10.170;2023-06-22T08:42:26;3.20;;;1.80;;
46090;SDS011;31826;53.572;10.170;2023-06-22T08:44:52;3.80;;;1.73;;
46090;SDS011;31826;53.572;10.170;2023-06-22T08:47:18;3.20;;;1.95;;
46090;SDS011;31826;53.572;10.170;2023-06-22T08:49:45;5.25;;;2.03;;
46090;SDS011;31826;53.572;10.170;2023-06-22T08:52:11;2.60;;;1.60;;
46090;SDS011;31826;53.572;10.170;2023-06-22T08:54:36;3.50;;;1.77;;
46090;SDS011;31826;53.572;10.170;2023-06-22T08:57:02;4.22;;;1.83;;
46090;SDS011;31826;53.572;10.170;2023-06-22T08:59:28;2.60;;;1.50;;
46090;SDS011;31826;53.572;10.170;2023-06-22T09:01:53;3.87;;;1.90;;
46090;SDS011;31826;53.572;10.170;2023-06-22T09:04:19;4.38;;;1.70;;
46090;SDS011;31826;53.572;10.170;2023-06-22T09:06:47;3.07;;;1.60;;
46090;SDS011;31826;53.572;10.170;2023-06-22T09:09:15;3.92;;;1.98;;
46090;SDS011;31826;53.572;10.170;2023-06-22T09:11:41;3.38;;;2.20;;
46090;SDS011;31826;53.572;10.170;2023-06-22T09:14:07;4.10;;;1.88;;
46090;SDS011;31826;53.572;10.170;2023-06-22T09:16:34;3.08;;;1.70;;
46090;SDS011;31826;53.572;10.170;2023-06-22T09:19:00;3.92;;;1.73;;
46090;SDS011;31826;53.572;10.170;2023-06-22T09:21:26;3.22;;;1.60;;
46090;SDS011;31826;53.572;10.170;2023-06-22T09:23:51;3.70;;;2.08;;
46090;SDS011;31826;53.572;10.170;2023-06-22T09:26:18;3.38;;;1.77;;
46090;SDS011;31826;53.572;10.170;2023-06-22T09:28:44;5.78;;;1.92;;
46090;SDS011;31826;53.572;10.170;2023-06-22T09:31:10;2.88;;;1.60;;
46090;SDS011;31826;53.572;10.170;2023-06-22T09:33:36;2.67;;;1.70;;
46090;SDS011;31826;53.572;10.170;2023-06-22T09:36:05;3.65;;;1.98;;
46090;SDS011;31826;53.572;10.170;2023-06-22T09:38:37;4.22;;;2.00;;
46090;SDS011;31826;53.572;10.170;2023-06-22T09:41:03;5.40;;;1.95;;
46090;SDS011;31826;53.572;10.170;2023-06-22T09:43:31;5.87;;;2.17;;
46090;SDS011;31826;53.572;10.170;2023-06-22T09:46:00;5.77;;;2.30;;
46090;SDS011;31826;53.572;10.170;2023-06-22T09:48:27;3.87;;;1.93;;
46090;SDS011;31826;53.572;10.170;2023-06-22T09:50:53;4.18;;;2.55;;
46090;SDS011;31826;53.572;10.170;2023-06-22T09:53:19;3.73;;;1.90;;
46090;SDS011;31826;53.572;10.170;2023-06-22T09:55:44;4.13;;;1.80;;
46090;SDS011;31826;53.572;10.170;2023-06-22T09:58:10;4.63;;;2.15;;
46090;SDS011;31826;53.572;10.170;2023-06-22T10:00:36;4.63;;;2.20;;
46090;SDS011;31826;53.572;10.170;2023-06-22T10:03:01;5.00;;;2.28;;
46090;SDS011;31826;53.572;10.170;2023-06-22T10:05:27;6.65;;;2.25;;
46090;SDS011;31826;53.572;10.170;2023-06-22T10:07:53;3.67;;;1.90;;
46090;SDS011;31826;53.572;10.170;2023-06-22T10:10:18;5.03;;;1.80;;
46090;SDS011;31826;53.572;10.170;2023-06-22T10:12:48;4.87;;;2.00;;
46090;SDS011;31826;53.572;10.170;2023-06-22T10:15:20;4.80;;;2.08;;
46090;SDS011;31826;53.572;10.170;2023-06-22T10:17:46;3.90;;;1.83;;
46090;SDS011;31826;53.572;10.170;2023-06-22T10:20:12;4.15;;;2.25;;
46090;SDS011;31826;53.572;10.170;2023-06-22T10:22:39;3.77;;;1.97;;
46090;SDS011;31826;53.572;10.170;2023-06-22T10:25:05;4.07;;;1.90;;
46090;SDS011;31826;53.572;10.170;2023-06-22T10:27:31;3.37;;;1.90;;
46090;SDS011;31826;53.572;10.170;2023-06-22T10:29:57;5.33;;;1.93;;
46090;SDS011;31826;53.572;10.170;2023-06-22T10:32:23;3.97;;;2.30;;
46090;SDS011;31826;53.572;10.170;2023-06-22T10:34:48;5.07;;;2.03;;
46090;SDS011;31826;53.572;10.170;2023-06-22T10:37:14;4.10;;;2.00;;
46090;SDS011;31826;53.572;10.170;2023-06-22T10:39:40;6.40;;;2.75;;
46090;SDS011;31826;53.572;10.170;2023-06-22T10:42:05;4.60;;;2.13;;
46090;SDS011;31826;53.572;10.170;2023-06-22T10:44:31;4.35;;;2.00;;
46090;SDS011;31826;53.572;10.170;2023-06-22T10:46:57;4.10;;;2.00;;
46090;SDS011;31826;53.572;10.170;2023-06-22T10:49:23;5.10;;;2.17;;
46090;SDS011;31826;53.572;10.170;2023-06-22T10:51:48;3.83;;;1.90;;
46090;SDS011;31826;53.572;10.170;2023-06-22T10:54:14;5.80;;;2.00;;
46090;SDS011;31826;53.572;10.170;2023-06-22T10:56:42;3.58;;;1.92;;
46090;SDS011;31826;53.572;10.170;2023-06-22T10:59:08;4.15;;;2.28;;
46090;SDS011;31826;53.572;10.170;2023-06-22T11:01:33;2.97;;;2.10;;
46090;SDS011;31826;53.572;10.170;2023-06-22T11:03:59;3.97;;;2.05;;
46090;SDS011;31826;53.572;10.170;2023-06-22T11:06:25;3.33;;;2.07;;
46090;SDS011;31826;53.572;10.170;2023-06-22T11:08:50;4.75;;;2.35;;
46090;SDS011;31826;53.572;10.170;2023-06-22T11:11:16;5.18;;;2.05;;
46090;SDS011;31826;53.572;10.170;2023-06-22T11:13:45;4.10;;;2.20;;
46090;SDS011;31826;53.572;10.170;2023-06-22T11:16:10;5.38;;;2.30;;
46090;SDS011;31826;53.572;10.170;2023-06-22T11:18:36;5.00;;;2.17;;
46090;SDS011;31826;53.572;10.170;2023-06-22T11:21:02;4.03;;;2.35;;
46090;SDS011;31826;53.572;10.170;2023-06-22T11:23:28;4.68;;;2.20;;
46090;SDS011;31826;53.572;10.170;2023-06-22T11:25:54;4.10;;;1.98;;
46090;SDS011;31826;53.572;10.170;2023-06-22T11:28:20;4.53;;;2.55;;
46090;SDS011;31826;53.572;10.170;2023-06-22T11:30:45;5.40;;;2.53;;
46090;SDS011;31826;53.572;10.170;2023-06-22T11:33:11;4.72;;;2.13;;
46090;SDS011;31826;53.572;10.170;2023-06-22T11:35:37;4.63;;;2.60;;
46090;SDS011;31826;53.572;10.170;2023-06-22T11:38:03;7.00;;;2.60;;
46090;SDS011;31826;53.572;10.170;2023-06-22T11:40:29;5.57;;;2.70;;
46090;SDS011;31826;53.572;10.170;2023-06-22T11:42:55;5.78;;;3.00;;
46090;SDS011;31826;53.572;10.170;2023-06-22T11:45:21;5.13;;;2.53;;
46090;SDS011;31826;53.572;10.170;2023-06-22T11:47:47;4.43;;;2.15;;
46090;SDS011;31826;53.572;10.170;2023-06-22T11:50:12;4.43;;;2.35;;
46090;SDS011;31826;53.572;10.170;2023-06-22T11:52:38;6.77;;;2.67;;
46090;SDS011;31826;53.572;10.170;2023-06-22T11:55:04;4.47;;;2.40;;
46090;SDS011;31826;53.572;10.170;2023-06-22T11:57:34;5.35;;;2.67;;
46090;SDS011;31826;53.572;10.170;2023-06-22T12:00:02;6.15;;;2.50;;
46090;SDS011;31826;53.572;10.170;2023-06-22T12:02:42;6.78;;;2.65;;
46090;SDS011;31826;53.572;10.170;2023-06-22T12:05:10;5.53;;;2.67;;
46090;SDS011;31826;53.572;10.170;2023-06-22T12:07:36;4.30;;;2.50;;
46090;SDS011;31826;53.572;10.170;2023-06-22T12:10:02;5.75;;;2.50;;
46090;SDS011;31826;53.572;10.170;2023-06-22T12:12:28;5.95;;;3.05;;
46090;SDS011;31826;53.572;10.170;2023-06-22T12:14:54;5.03;;;2.40;;
46090;SDS011;31826;53.572;10.170;2023-06-22T12:17:20;3.13;;;2.30;;
46090;SDS011;31826;53.572;10.170;2023-06-22T12:19:45;6.00;;;2.60;;
46090;SDS011;31826;53.572;10.170;2023-06-22T12:22:11;5.28;;;2.53;;
46090;SDS011;31826;53.572;10.170;2023-06-22T12:24:37;4.93;;;2.40;;
46090;SDS011;31826;53.572;10.170;2023-06-22T12:27:03;3.97;;;2.27;;
46090;SDS011;31826;53.572;10.170;2023-06-22T12:29:29;4.10;;;2.30;;
46090;SDS011;31826;53.572;10.170;2023-06-22T12:31:54;5.05;;;2.60;;
46090;SDS011;31826;53.572;10.170;2023-06-22T12:34:20;5.53;;;2.60;;
46090;SDS011;31826;53.572;10.170;2023-06-22T12:36:45;5.82;;;2.60;;
46090;SDS011;31826;53.572;10.170;2023-06-22T12:39:13;4.07;;;2.38;;
46090;SDS011;31826;53.572;10.170;2023-06-22T12:41:39;6.07;;;2.63;;
46090;SDS011;31826;53.572;10.170;2023-06-22T12:44:05;5.17;;;2.50;;
46090;SDS011;31826;53.572;10.170;2023-06-22T12:46:30;7.75;;;3.17;;
46090;SDS011;31826;53.572;10.170;2023-06-22T12:49:02;4.43;;;2.37;;
46090;SDS011;31826;53.572;10.170;2023-06-22T12:51:29;5.20;;;2.35;;
46090;SDS011;31826;53.572;10.170;2023-06-22T12:53:55;4.40;;;2.63;;
46090;SDS011;31826;53.572;10.170;2023-06-22T12:56:21;5.47;;;2.70;;
46090;SDS011;31826;53.572;10.170;2023-06-22T12:58:46;4.28;;;2.47;;
46090;SDS011;31826;53.572;10.170;2023-06-22T13:01:12;4.43;;;2.33;;
46090;SDS011;31826;53.572;10.170;2023-06-22T13:03:38;5.43;;;2.47;;
46090;SDS011;31826;53.572;10.170;2023-06-22T13:06:04;4.03;;;2.33;;
46090;SDS011;31826;53.572;10.170;2023-06-22T13:08:29;4.82;;;2.45;;
46090;SDS011;31826;53.572;10.170;2023-06-22T13:10:55;5.15;;;2.67;;
46090;SDS011;31826;53.572;10.170;2023-06-22T13:13:23;4.60;;;2.60;;
46090;SDS011;31826;53.572;10.170;2023-06-22T13:15:52;4.67;;;2.50;;
46090;SDS011;31826;53.572;10.170;2023-06-22T13:18:19;5.10;;;2.50;;
46090;SDS011;31826;53.572;10.170;2023-06-22T13:20:44;4.23;;;2.33;;
46090;SDS011;31826;53.572;10.170;2023-06-22T13:23:10;6.10;;;2.90;;
46090;SDS011;31826;53.572;10.170;2023-06-22T13:25:36;4.47;;;2.20;;
46090;SDS011;31826;53.572;10.170;2023-06-22T13:28:02;5.28;;;2.60;;
46090;SDS011;31826;53.572;10.170;2023-06-22T13:30:28;4.93;;;2.65;;
46090;SDS011;31826;53.572;10.170;2023-06-22T13:32:54;5.50;;;2.97;;
46090;SDS011;31826;53.572;10.170;2023-06-22T13:35:20;5.60;;;2.50;;
46090;SDS011;31826;53.572;10.170;2023-06-22T13:37:46;3.50;;;2.30;;
46090;SDS011;31826;53.572;10.170;2023-06-22T13:40:11;5.13;;;2.50;;
46090;SDS011;31826;53.572;10.170;2023-06-22T13:42:37;5.60;;;2.47;;
46090;SDS011;31826;53.572;10.170;2023-06-22T13:45:03;4.85;;;2.63;;
46090;SDS011;31826;53.572;10.170;2023-06-22T13:47:30;4.30;;;2.60;;
46090;SDS011;31826;53.572;10.170;2023-06-22T13:49:56;4.88;;;2.60;;
46090;SDS011;31826;53.572;10.170;2023-06-22T13:52:22;5.30;;;2.85;;
46090;SDS011;31826;53.572;10.170;2023-06-22T13:54:48;5.03;;;2.70;;
46090;SDS011;31826;53.572;10.170;2023-06-22T13:57:14;5.38;;;2.45;;
46090;SDS011;31826;53.572;10.170;2023-06-22T13:59:40;4.03;;;2.40;;
46090;SDS011;31826;53.572;10.170;2023-06-22T14:02:05;5.00;;;2.50;;
46090;SDS011;31826;53.572;10.170;2023-06-22T14:04:31;4.50;;;2.70;;
46090;SDS011;31826;53.572;10.170;2023-06-22T14:06:57;4.90;;;2.63;;
46090;SDS011;31826;53.572;10.170;2023-06-22T14:09:23;5.07;;;2.72;;
46090;SDS011;31826;53.572;10.170;2023-06-22T14:11:49;4.43;;;2.40;;
46090;SDS011;31826;53.572;10.170;2023-06-22T14:14:14;6.53;;;2.63;;
46090;SDS011;31826;53.572;10.170;2023-06-22T14:16:40;4.50;;;2.33;;
46090;SDS011;31826;53.572;10.170;2023-06-22T14:19:07;4.82;;;2.60;;
46090;SDS011;31826;53.572;10.170;2023-06-22T14:21:43;6.15;;;2.55;;
46090;SDS011;31826;53.572;10.170;2023-06-22T14:24:09;5.07;;;2.85;;
46090;SDS011;31826;53.572;10.170;2023-06-22T14:26:34;5.90;;;2.73;;
46090;SDS011;31826;53.572;10.170;2023-06-22T14:29:00;5.53;;;2.50;;
46090;SDS011;31826;53.572;10.170;2023-06-22T14:31:26;5.13;;;2.90;;
46090;SDS011;31826;53.572;10.170;2023-06-22T14:33:51;5.07;;;2.77;;
46090;SDS011;31826;53.572;10.170;2023-06-22T14:36:17;6.82;;;2.75;;
46090;SDS011;31826;53.572;10.170;2023-06-22T14:38:43;7.68;;;3.65;;
46090;SDS011;31826;53.572;10.170;2023-06-22T14:41:09;6.63;;;3.00;;
46090;SDS011;31826;53.572;10.170;2023-06-22T14:43:35;5.30;;;2.95;;